กรุงเทพมหานคร, ประเทศไทย

11:56 PM ICT วัน กรกฎาคม 24, 2014 (GMT +0700)
Bangkok International (VTBD) Elev 13 ft | 13.92 °N, 100.61 °E | Change Station

Current weather conditions updated 26 minutes ago

Mostly Cloudy
มีเมฆคลุมเป็นส่วนใหญ่
82 ฟาเรนไฮน์
Feels Like 90 ฟาเรนไฮน์
N
7
ลม ความผันแปร ลม from ทางทิศตะวันตกและทิศตะวันตกเฉียงใต้

Tomorrow is forecast to be Cooler than today. พายุฟ้าคะนอง.

วันนี้
High -- | Low -- ฟาเรนไฮน์
--% Chance of Precip.
Yesterday
High -- | Low -- ฟาเรนไฮน์
Precip. -- นิ้ว
5:59 AM 6:48 PM
เดือนเสี้ยว, 5% visible
ความดัน 29.74 นิ้ว
ทัศนวิสัย 5.6 ไมล์
เมฆ Few 2500 ft
มีเมฆคลุมเป็นบางส่วน 12000 ft
มีเมฆคลุมเป็นส่วนใหญ่ 30000 ft
ดัชนีความร้อน 90 ฟาเรนไฮน์
อุณหภูมิที่อากาศอาจจับตัวเป็นหยาดน้ำค้าง 75 ฟาเรนไฮน์
ความชื้น 79%
Rainfall 0.00 นิ้ว
Snow Depth Not available.
UV 0 out of 12
Pollen Not available.
Air Quality Not available.
Flu Activity Not available.
METAR VTBD 241630Z 24006KT 9000 FEW025 SCT120 BKN300 28/24 Q1007 NOSIG

More Conditions Fewer Conditions

ความดัน 29.74 นิ้ว
ทัศนวิสัย 5.6 ไมล์
เมฆ Few 2500 ft
มีเมฆคลุมเป็นบางส่วน 12000 ft
มีเมฆคลุมเป็นส่วนใหญ่ 30000 ft
ดัชนีความร้อน 90 ฟาเรนไฮน์
อุณหภูมิที่อากาศอาจจับตัวเป็นหยาดน้ำค้าง 75 ฟาเรนไฮน์
ความชื้น 79%
Rainfall 0.00 นิ้ว
Snow Depth Not available.
UV 0 out of 12
Pollen Not available.
Air Quality Not available.
Flu Activity Not available.
METAR VTBD 241630Z 24006KT 9000 FEW025 SCT120 BKN300 28/24 Q1007 NOSIG

More Conditions Fewer Conditions

10-Day Weather Forecast

Almanac

ดาราศาสตร์

Jul. 24, 2014 Rise Set
Actual Time 5:59 AM ICT 6:48 PM ICT
Civil Twilight 5:36 AM ICT 7:11 PM ICT
Nautical Twilight 5:10 AM ICT 7:38 PM ICT
Astronomical Twilight 4:42 AM ICT 8:05 PM ICT
Moon 3:38 AM ICT 4:42 PM ICT
Length Of Visible Light 13h 34m
ความยาวของวัน
12h 48m
Tomorrow will be 0m 30s shorter.
เดือนเสี้ยว, 5% of the Moon is Illuminated
วันนี้
เดือนเสี้ยว
Jul 26
New
Aug 3
ไตรมาสแรก
Aug 10
พระจันทร์เต็มดวง
Aug 17
ไตรมาสล่าสุด

Today's Extremes

Country Highs Country Lows

Community

WunderPhotos

Upload Photos

1,737,062 photos uploaded!

Nearby

Snow Depth

Not available.

Earthquake Activity

City Distance Mag. Time & Date
No recent earthquake activity has been reported nearby.
Minimum magnitude displayed is 2.5.

Coastal Water Temperatures

สถานที่ อุณหภูมิ
No Stations Reporting

Nearby Weather Stations

Station Location Temp ดัชนีความร้อน อุณหภูมิที่อากาศอาจจับตัวเป็นหยาดน้ำค้าง ความชื้น ลม Precip. Elev ปรับปรุงล่าสุด Type
Patumwan Demonstration School, Bangkok 83.9 ฟาเรนไฮน์ 91 ฟาเรนไฮน์ 74 ฟาเรนไฮน์ 71% ทางทิศตะวันตก  ความเร็วที่  1.0 mph 0.00 นิ้ว / hr 46 ft 11:46 PM ICT Normal
Dokmai, Pravet, Bangkok 83.5 ฟาเรนไฮน์ 87 ฟาเรนไฮน์ 69 ฟาเรนไฮน์ 62% ทางทิศเหนือและทิศตะวันตกเฉียงเหนือ  ความเร็วที่  0.0 mph 0.00 นิ้ว / hr 10 ft 11:56 PM ICT Rapid Fire

Show More Stations Show Fewer Stations